createdAt,value
2023-01-24T00:00:45.954Z,10.77
2023-01-24T00:03:16.235Z,12.40
2023-01-24T00:05:44.731Z,12.00
2023-01-24T00:08:15.493Z,11.20
2023-01-24T00:10:42.227Z,11.02
2023-01-24T00:13:12.632Z,10.55
2023-01-24T00:15:39.127Z,11.38
2023-01-24T00:18:05.690Z,11.30
2023-01-24T00:20:32.164Z,11.97
2023-01-24T00:22:58.538Z,10.65
2023-01-24T00:25:24.938Z,10.13
2023-01-24T00:27:51.284Z,11.57
2023-01-24T00:30:17.982Z,10.57
2023-01-24T00:32:44.351Z,11.80
2023-01-24T00:35:10.737Z,10.73
2023-01-24T00:37:37.167Z,10.85
2023-01-24T00:40:03.714Z,10.63
2023-01-24T00:42:30.056Z,10.77
2023-01-24T00:44:56.409Z,11.63
2023-01-24T00:47:22.869Z,9.45
2023-01-24T00:49:49.272Z,11.80
2023-01-24T00:52:15.733Z,10.05
2023-01-24T00:54:42.191Z,11.23
2023-01-24T00:57:08.629Z,10.77
2023-01-24T00:59:35.050Z,11.63
2023-01-24T01:02:01.625Z,11.52
2023-01-24T01:04:28.010Z,11.65
2023-01-24T01:06:54.420Z,10.35
2023-01-24T01:09:20.770Z,10.70
2023-01-24T01:11:47.114Z,10.63
2023-01-24T01:14:13.475Z,11.35
2023-01-24T01:16:39.879Z,11.65
2023-01-24T01:19:06.736Z,12.63
2023-01-24T01:21:33.911Z,11.40
2023-01-24T01:24:00.319Z,9.95
2023-01-24T01:26:26.764Z,11.30
2023-01-24T01:28:53.169Z,11.88
2023-01-24T01:31:19.842Z,11.40
2023-01-24T01:33:46.742Z,12.73
2023-01-24T01:36:13.376Z,10.75
2023-01-24T01:38:39.731Z,10.55
2023-01-24T01:41:06.351Z,11.23
2023-01-24T01:43:32.737Z,11.25
2023-01-24T01:46:24.273Z,11.53
2023-01-24T01:48:54.533Z,12.20
2023-01-24T01:51:31.333Z,9.77
2023-01-24T01:54:03.250Z,9.88
2023-01-24T01:56:31.136Z,10.93
2023-01-24T01:59:00.549Z,10.90
2023-01-24T02:01:27.647Z,11.15
2023-01-24T02:04:09.304Z,11.85
2023-01-24T02:06:50.769Z,10.00
2023-01-24T02:09:21.889Z,8.85
2023-01-24T02:11:49.353Z,10.73
2023-01-24T02:14:37.396Z,9.63
2023-01-24T02:17:03.776Z,10.18
2023-01-24T02:19:55.132Z,12.82
2023-01-24T02:22:36.971Z,11.02
2023-01-24T02:25:30.567Z,11.40
2023-01-24T02:27:56.976Z,11.52
2023-01-24T02:30:23.325Z,10.80
2023-01-24T02:32:49.706Z,11.70
2023-01-24T02:35:28.790Z,9.77
2023-01-24T02:37:59.081Z,9.57
2023-01-24T02:40:29.730Z,10.00
2023-01-24T02:42:59.925Z,9.55
2023-01-24T02:45:29.099Z,9.15
2023-01-24T02:47:57.205Z,11.55
2023-01-24T02:50:27.402Z,11.63
2023-01-24T02:53:12.532Z,11.02
2023-01-24T02:55:57.167Z,10.02
2023-01-24T02:58:23.634Z,10.75
2023-01-24T03:00:49.984Z,10.68
2023-01-24T03:03:16.420Z,10.70
2023-01-24T03:05:58.228Z,10.23
2023-01-24T03:08:26.474Z,9.88
2023-01-24T03:10:53.200Z,10.15
2023-01-24T03:13:38.986Z,11.07
2023-01-24T03:16:25.420Z,11.30
2023-01-24T03:19:10.361Z,9.18
2023-01-24T03:21:55.516Z,11.00
2023-01-24T03:24:40.834Z,9.82
2023-01-24T03:27:26.605Z,10.30
2023-01-24T03:30:11.953Z,10.67
2023-01-24T03:32:57.184Z,12.95
2023-01-24T03:35:23.887Z,12.65
2023-01-24T03:38:09.036Z,11.60
2023-01-24T03:40:36.182Z,10.85
2023-01-24T03:43:03.724Z,10.30
2023-01-24T03:45:35.544Z,10.20
2023-01-24T03:48:13.737Z,11.32
2023-01-24T03:51:01.645Z,13.18
2023-01-24T03:53:30.632Z,9.80
2023-01-24T03:56:00.055Z,10.40
2023-01-24T03:58:28.405Z,11.45
2023-01-24T04:00:55.631Z,10.25
2023-01-24T04:03:22.514Z,11.77
2023-01-24T04:05:50.039Z,13.70
2023-01-24T04:08:17.710Z,12.97
2023-01-24T04:10:44.509Z,11.93
2023-01-24T04:13:11.827Z,11.70
2023-01-24T04:15:38.588Z,12.98
2023-01-24T04:18:06.518Z,12.20
2023-01-24T04:20:35.958Z,12.83
2023-01-24T04:23:04.172Z,13.35
2023-01-24T04:25:30.571Z,13.50
2023-01-24T04:27:57.581Z,11.23
2023-01-24T04:30:24.379Z,15.88
2023-01-24T04:32:51.092Z,12.33
2023-01-24T04:35:24.090Z,13.85
2023-01-24T04:37:51.122Z,14.32
2023-01-24T04:40:17.764Z,11.65
2023-01-24T04:42:44.160Z,12.80
2023-01-24T04:45:11.591Z,12.97
2023-01-24T04:47:38.159Z,16.48
2023-01-24T04:50:05.179Z,14.07
2023-01-24T04:52:31.566Z,14.73
2023-01-24T04:54:57.925Z,13.13
2023-01-24T04:57:24.511Z,15.27
2023-01-24T04:59:50.874Z,14.80
2023-01-24T05:02:17.339Z,13.35
2023-01-24T05:04:44.758Z,12.88
2023-01-24T05:07:11.339Z,13.80
2023-01-24T05:09:37.696Z,15.97
2023-01-24T05:12:04.253Z,14.50
2023-01-24T05:14:30.633Z,16.40
2023-01-24T05:16:57.064Z,15.75
2023-01-24T05:19:23.501Z,16.00
2023-01-24T05:21:49.857Z,16.47
2023-01-24T05:24:16.406Z,13.40
2023-01-24T05:26:42.761Z,15.02
2023-01-24T05:29:09.111Z,12.73
2023-01-24T05:31:35.564Z,15.43
2023-01-24T05:34:01.925Z,13.33
2023-01-24T05:36:28.292Z,15.27
2023-01-24T05:38:54.683Z,17.02
2023-01-24T05:41:21.349Z,16.75
2023-01-24T05:43:48.325Z,16.05
2023-01-24T05:46:17.317Z,15.33
2023-01-24T05:48:44.961Z,14.05
2023-01-24T05:51:13.494Z,14.85
2023-01-24T05:53:41.454Z,16.77
2023-01-24T05:56:13.534Z,15.82
2023-01-24T05:58:41.077Z,15.27
2023-01-24T06:01:19.767Z,17.00
2023-01-24T06:03:51.496Z,15.20
2023-01-24T06:06:20.320Z,18.05
2023-01-24T06:08:46.841Z,19.45
2023-01-24T06:11:22.331Z,18.70
2023-01-24T06:13:49.518Z,19.75
2023-01-24T06:16:22.568Z,19.77
2023-01-24T06:18:50.671Z,16.23
2023-01-24T06:21:28.825Z,15.55
2023-01-24T06:23:55.675Z,15.23
2023-01-24T06:26:22.584Z,13.68
2023-01-24T06:28:49.421Z,14.02
2023-01-24T06:31:55.963Z,15.07
2023-01-24T06:34:39.140Z,14.98
2023-01-24T06:37:16.053Z,14.93
2023-01-24T06:39:50.899Z,14.40
2023-01-24T06:42:21.891Z,13.73
2023-01-24T06:44:48.768Z,15.65
2023-01-24T06:47:15.913Z,14.05
2023-01-24T06:49:43.009Z,16.47
2023-01-24T06:52:10.364Z,16.10
2023-01-24T06:54:36.840Z,16.35
2023-01-24T06:57:04.616Z,16.38
2023-01-24T06:59:31.032Z,16.40
2023-01-24T07:01:57.402Z,12.03
2023-01-24T07:04:23.737Z,13.30
2023-01-24T07:06:53.428Z,14.23
2023-01-24T07:09:23.861Z,14.93
2023-01-24T07:11:53.573Z,15.25
2023-01-24T07:14:20.252Z,12.83
2023-01-24T07:16:46.709Z,15.65
2023-01-24T07:19:19.320Z,14.85
2023-01-24T07:21:46.227Z,12.93
2023-01-24T07:24:16.743Z,13.13
2023-01-24T07:26:44.233Z,15.10
2023-01-24T07:29:10.728Z,15.43
2023-01-24T07:31:37.172Z,15.38
2023-01-24T07:34:03.737Z,13.45
2023-01-24T07:36:30.157Z,14.13
2023-01-24T07:38:57.811Z,17.80
2023-01-24T07:41:24.829Z,15.45
2023-01-24T07:43:51.209Z,14.18
2023-01-24T07:46:17.667Z,15.45
2023-01-24T07:48:44.037Z,14.93
2023-01-24T07:51:10.423Z,13.93
2023-01-24T07:53:36.837Z,15.20
2023-01-24T07:56:05.066Z,15.52
2023-01-24T07:58:32.262Z,13.23
2023-01-24T08:00:59.060Z,13.52
2023-01-24T08:03:25.528Z,16.50
2023-01-24T08:05:52.022Z,14.68
2023-01-24T08:08:18.564Z,18.50
2023-01-24T08:10:44.898Z,17.48
2023-01-24T08:13:11.275Z,16.05
2023-01-24T08:15:37.607Z,16.93
2023-01-24T08:18:04.828Z,16.42
2023-01-24T08:20:31.236Z,17.25
2023-01-24T08:22:58.460Z,17.73
2023-01-24T08:25:27.074Z,15.68
2023-01-24T08:27:55.004Z,17.73
2023-01-24T08:30:22.078Z,17.95
2023-01-24T08:32:48.698Z,15.45
2023-01-24T08:35:15.232Z,15.00
2023-01-24T08:37:41.603Z,14.30
2023-01-24T08:40:09.084Z,14.17
2023-01-24T08:42:36.698Z,15.10
2023-01-24T08:45:03.265Z,14.00
2023-01-24T08:47:29.649Z,14.43
2023-01-24T08:49:56.077Z,13.85
2023-01-24T08:52:22.416Z,12.87
2023-01-24T08:54:48.800Z,15.05
2023-01-24T08:57:15.195Z,13.88
2023-01-24T08:59:41.586Z,13.82
2023-01-24T09:02:13.145Z,13.20
2023-01-24T09:04:39.592Z,14.33
2023-01-24T09:07:05.986Z,14.20
2023-01-24T09:09:32.399Z,12.45
2023-01-24T09:11:58.738Z,14.10
2023-01-24T09:14:25.156Z,14.52
2023-01-24T09:16:51.589Z,12.83
2023-01-24T09:19:18.034Z,14.75
2023-01-24T09:21:45.718Z,14.82
2023-01-24T09:24:12.136Z,13.88
2023-01-24T09:26:38.549Z,14.02
2023-01-24T09:29:05.775Z,13.63
2023-01-24T09:31:32.311Z,12.30
2023-01-24T09:34:00.183Z,12.95
2023-01-24T09:36:27.132Z,11.75
2023-01-24T09:39:04.798Z,10.70
2023-01-24T09:41:41.355Z,12.07
2023-01-24T09:44:49.573Z,12.43
2023-01-24T09:47:18.424Z,13.20
2023-01-24T09:49:56.453Z,14.60
2023-01-24T09:52:41.801Z,12.48
2023-01-24T09:55:26.695Z,13.87
2023-01-24T09:58:02.058Z,11.70
2023-01-24T10:00:36.320Z,13.15
2023-01-24T10:03:03.368Z,11.02
2023-01-24T10:05:42.635Z,13.18
2023-01-24T10:08:25.763Z,12.67
2023-01-24T10:11:18.946Z,11.43
2023-01-24T10:14:27.431Z,11.93
2023-01-24T10:16:59.863Z,12.32
2023-01-24T10:20:00.816Z,12.80
2023-01-24T10:22:36.172Z,12.13
2023-01-24T10:25:34.921Z,13.75
2023-01-24T10:28:04.018Z,11.73
2023-01-24T10:30:50.200Z,18.15
2023-01-24T10:33:19.916Z,16.15
2023-01-24T10:35:56.868Z,16.47
2023-01-24T10:38:23.711Z,14.75
2023-01-24T10:40:57.607Z,15.43
2023-01-24T10:43:27.157Z,15.55
2023-01-24T10:46:10.126Z,15.60
2023-01-24T10:48:41.827Z,16.00
2023-01-24T10:51:18.039Z,12.90
2023-01-24T10:53:44.853Z,14.40
2023-01-24T10:56:12.841Z,11.95
2023-01-24T10:58:48.075Z,14.57
2023-01-24T11:01:23.160Z,15.93
2023-01-24T11:03:52.224Z,13.13
2023-01-24T11:06:24.254Z,14.43
2023-01-24T11:09:04.777Z,14.07
2023-01-24T11:11:33.854Z,15.73
2023-01-24T11:14:01.869Z,14.23
2023-01-24T11:16:34.564Z,16.08
2023-01-24T11:19:06.899Z,18.40
2023-01-24T11:21:34.299Z,16.42
2023-01-24T11:24:08.346Z,18.90
2023-01-24T11:26:53.083Z,17.63
2023-01-24T11:29:19.707Z,16.50
2023-01-24T11:31:49.416Z,16.90
2023-01-24T11:34:32.051Z,18.30
2023-01-24T11:37:24.402Z,18.30
2023-01-24T11:40:19.495Z,20.87
2023-01-24T11:43:12.903Z,15.27
2023-01-24T11:46:12.869Z,17.63
2023-01-24T11:48:45.138Z,15.85
2023-01-24T11:51:42.547Z,13.90
2023-01-24T11:54:26.912Z,14.17
2023-01-24T11:57:25.522Z,13.02
2023-01-24T11:59:58.208Z,14.40
2023-01-24T12:02:41.576Z,14.18
2023-01-24T12:05:10.818Z,13.93
2023-01-24T12:07:52.742Z,15.77
2023-01-24T12:10:51.625Z,13.75
2023-01-24T12:13:40.078Z,15.23
2023-01-24T12:16:25.028Z,15.65
2023-01-24T12:19:08.395Z,16.33
2023-01-24T12:21:34.885Z,16.07
2023-01-24T12:24:20.211Z,16.48
2023-01-24T12:26:52.809Z,13.90
2023-01-24T12:29:28.723Z,17.15
2023-01-24T12:32:02.015Z,17.15
2023-01-24T12:34:40.365Z,15.50
2023-01-24T12:37:29.992Z,14.88
2023-01-24T12:40:20.994Z,14.73
2023-01-24T12:42:58.702Z,13.60
2023-01-24T12:45:38.730Z,15.20
2023-01-24T12:48:20.682Z,16.93
2023-01-24T12:50:57.742Z,16.75
2023-01-24T12:53:42.628Z,16.90
2023-01-24T12:56:17.919Z,16.25
2023-01-24T12:58:49.723Z,18.48
2023-01-24T13:01:27.031Z,16.30
2023-01-24T13:04:25.496Z,17.10
2023-01-24T13:07:29.291Z,14.68
2023-01-24T13:10:22.765Z,15.45
2023-01-24T13:12:51.812Z,17.77
2023-01-24T13:15:21.807Z,16.50
2023-01-24T13:18:00.127Z,16.13
2023-01-24T13:20:45.892Z,19.30
2023-01-24T13:23:36.703Z,15.38
2023-01-24T13:26:27.338Z,15.63
2023-01-24T13:29:20.516Z,19.20
2023-01-24T13:32:09.004Z,17.08
2023-01-24T13:34:42.965Z,16.05
2023-01-24T13:37:19.496Z,15.55
2023-01-24T13:39:47.788Z,16.13
2023-01-24T13:42:23.263Z,16.97
2023-01-24T13:44:50.694Z,17.02
2023-01-24T13:47:17.000Z,15.10
2023-01-24T13:49:52.268Z,15.52
2023-01-24T13:52:34.656Z,13.43
2023-01-24T13:55:02.688Z,15.80
2023-01-24T13:57:30.994Z,15.10
2023-01-24T14:00:15.945Z,17.52
2023-01-24T14:02:58.387Z,17.50
2023-01-24T14:05:30.680Z,15.25
2023-01-24T14:08:03.010Z,15.13
2023-01-24T14:10:38.280Z,14.63
2023-01-24T14:13:05.191Z,14.77
2023-01-24T14:15:43.130Z,15.20
2023-01-24T14:18:54.393Z,15.85
2023-01-24T14:21:25.773Z,13.43
2023-01-24T14:23:57.143Z,13.85
2023-01-24T14:26:28.556Z,16.45
2023-01-24T14:28:57.043Z,15.98
2023-01-24T14:31:37.524Z,15.85
2023-01-24T14:34:17.328Z,15.10
2023-01-24T14:36:46.383Z,16.70
2023-01-24T14:39:26.693Z,15.68
2023-01-24T14:41:52.976Z,16.27
2023-01-24T14:44:23.244Z,15.48
2023-01-24T14:46:55.154Z,15.57
2023-01-24T14:49:48.719Z,14.85
2023-01-24T14:52:23.404Z,14.80
2023-01-24T14:55:01.635Z,17.15
2023-01-24T14:57:33.201Z,14.32
2023-01-24T15:00:28.908Z,14.77
2023-01-24T15:02:57.921Z,15.15
2023-01-24T15:05:32.908Z,14.65
2023-01-24T15:08:01.658Z,15.73
2023-01-24T15:10:31.884Z,15.18
2023-01-24T15:13:02.058Z,13.43
2023-01-24T15:15:29.902Z,15.98
2023-01-24T15:18:08.437Z,17.35
2023-01-24T15:20:35.059Z,15.68
2023-01-24T15:23:03.858Z,17.70
2023-01-24T15:25:33.618Z,15.70
2023-01-24T15:28:23.897Z,16.90
2023-01-24T15:30:55.230Z,14.63
2023-01-24T15:33:21.832Z,14.35
2023-01-24T15:35:51.859Z,13.65
2023-01-24T15:38:23.439Z,15.53
2023-01-24T15:40:51.607Z,13.10
2023-01-24T15:43:48.839Z,13.07
2023-01-24T15:46:50.205Z,13.38
2023-01-24T15:49:32.975Z,15.00
2023-01-24T15:52:16.418Z,14.87
2023-01-24T15:54:54.855Z,16.15
2023-01-24T15:57:30.842Z,16.08
2023-01-24T16:00:09.396Z,15.40
2023-01-24T16:02:35.787Z,15.48
2023-01-24T16:05:02.760Z,14.60
2023-01-24T16:07:29.140Z,16.13
2023-01-24T16:09:56.570Z,17.25
2023-01-24T16:12:24.752Z,14.77
2023-01-24T16:15:08.256Z,14.95
2023-01-24T16:17:36.379Z,12.77
2023-01-24T16:20:05.948Z,14.52
2023-01-24T16:22:33.840Z,13.75
2023-01-24T16:25:00.179Z,13.93
2023-01-24T16:27:32.442Z,12.48
2023-01-24T16:29:58.772Z,14.90
2023-01-24T16:32:25.198Z,16.48
2023-01-24T16:34:51.617Z,13.93
2023-01-24T16:37:21.308Z,14.63
2023-01-24T16:39:49.342Z,13.43
2023-01-24T16:42:18.135Z,14.93
2023-01-24T16:44:55.180Z,14.10
2023-01-24T16:47:21.565Z,14.15
2023-01-24T16:49:52.927Z,11.73
2023-01-24T16:52:19.882Z,12.45
2023-01-24T16:54:46.390Z,12.57
2023-01-24T16:57:12.776Z,13.07
2023-01-24T16:59:39.157Z,12.27
2023-01-24T17:02:05.726Z,13.85
2023-01-24T17:04:32.201Z,14.48
2023-01-24T17:07:04.516Z,12.63
2023-01-24T17:09:31.721Z,15.27
2023-01-24T17:12:13.190Z,13.10
2023-01-24T17:14:41.427Z,13.50
2023-01-24T17:17:07.830Z,14.70
2023-01-24T17:19:35.321Z,15.67
2023-01-24T17:22:01.685Z,16.35
2023-01-24T17:24:28.078Z,15.48
2023-01-24T17:26:54.446Z,15.20
2023-01-24T17:29:26.534Z,13.63
2023-01-24T17:31:52.956Z,18.43
2023-01-24T17:34:19.403Z,17.17
2023-01-24T17:36:46.396Z,17.88
2023-01-24T17:39:12.972Z,19.85
2023-01-24T17:41:39.363Z,19.25
2023-01-24T17:44:05.726Z,20.20
2023-01-24T17:46:32.204Z,17.75
2023-01-24T17:48:58.679Z,16.58
2023-01-24T17:51:27.307Z,18.00
2023-01-24T17:53:54.500Z,20.15
2023-01-24T17:56:20.937Z,18.63
2023-01-24T17:58:47.331Z,20.92
2023-01-24T18:01:15.556Z,19.73
2023-01-24T18:03:45.228Z,19.60
2023-01-24T18:06:12.112Z,19.33
2023-01-24T18:08:38.968Z,18.60
2023-01-24T18:11:09.930Z,18.90
2023-01-24T18:13:37.755Z,20.60
2023-01-24T18:16:06.420Z,19.90
2023-01-24T18:18:33.016Z,16.50
2023-01-24T18:20:59.457Z,18.03
2023-01-24T18:23:25.803Z,20.98
2023-01-24T18:25:52.163Z,14.93
2023-01-24T18:28:18.529Z,15.27
2023-01-24T18:30:44.904Z,17.45
2023-01-24T18:33:11.285Z,16.43
2023-01-24T18:35:40.905Z,15.48
2023-01-24T18:38:07.262Z,15.75
2023-01-24T18:40:33.655Z,14.25
2023-01-24T18:43:00.006Z,17.02
2023-01-24T18:45:26.420Z,13.93
2023-01-24T18:47:52.814Z,17.40
2023-01-24T18:50:19.390Z,15.10
2023-01-24T18:52:45.747Z,14.15
2023-01-24T18:55:14.087Z,17.63
2023-01-24T18:57:40.538Z,15.37
2023-01-24T19:00:09.410Z,15.30
2023-01-24T19:02:36.225Z,13.45
2023-01-24T19:05:05.447Z,16.42
2023-01-24T19:07:32.042Z,14.68
2023-01-24T19:09:58.416Z,13.10
2023-01-24T19:12:24.838Z,14.88
2023-01-24T19:14:53.182Z,15.18
2023-01-24T19:17:20.116Z,14.63
2023-01-24T19:19:46.516Z,13.65
2023-01-24T19:22:12.881Z,15.90
2023-01-24T19:24:39.325Z,15.73
2023-01-24T19:27:05.680Z,16.48
2023-01-24T19:29:32.027Z,14.48
2023-01-24T19:31:58.577Z,15.38
2023-01-24T19:34:25.035Z,13.37
2023-01-24T19:36:51.395Z,15.43
2023-01-24T19:39:17.810Z,15.75
2023-01-24T19:41:44.249Z,15.85
2023-01-24T19:44:20.234Z,15.25
2023-01-24T19:46:48.240Z,16.30
2023-01-24T19:49:14.649Z,17.08
2023-01-24T19:51:41.083Z,16.23
2023-01-24T19:54:07.987Z,14.82
2023-01-24T19:56:36.483Z,14.68
2023-01-24T19:59:04.143Z,14.83
2023-01-24T20:01:30.634Z,15.55
2023-01-24T20:04:06.168Z,13.77
2023-01-24T20:06:37.485Z,15.10
2023-01-24T20:09:04.892Z,15.75
2023-01-24T20:11:31.437Z,17.43
2023-01-24T20:13:58.275Z,18.23
2023-01-24T20:16:27.605Z,18.63
2023-01-24T20:18:59.418Z,15.63
2023-01-24T20:21:30.119Z,17.33
2023-01-24T20:23:58.260Z,18.10
2023-01-24T20:26:26.293Z,14.13
2023-01-24T20:28:52.799Z,16.20
2023-01-24T20:31:19.706Z,16.63
2023-01-24T20:33:48.277Z,18.75
2023-01-24T20:36:16.949Z,18.37
2023-01-24T20:38:46.327Z,17.38
2023-01-24T20:41:13.829Z,17.60
2023-01-24T20:43:41.567Z,15.88
2023-01-24T20:46:12.481Z,17.90
2023-01-24T20:48:39.018Z,16.53
2023-01-24T20:51:07.312Z,17.30
2023-01-24T20:53:34.121Z,19.40
2023-01-24T20:56:03.526Z,18.05
2023-01-24T20:58:30.539Z,17.73
2023-01-24T21:01:10.003Z,17.67
2023-01-24T21:03:36.385Z,16.27
2023-01-24T21:06:05.292Z,16.95
2023-01-24T21:08:35.936Z,17.33
2023-01-24T21:11:02.890Z,16.23
2023-01-24T21:13:40.243Z,17.20
2023-01-24T21:16:09.760Z,19.80
2023-01-24T21:18:36.205Z,17.52
2023-01-24T21:21:02.646Z,17.48
2023-01-24T21:23:29.085Z,19.15
2023-01-24T21:25:55.550Z,17.97
2023-01-24T21:28:22.062Z,18.00
2023-01-24T21:30:48.519Z,16.60
2023-01-24T21:33:14.925Z,18.63
2023-01-24T21:35:41.312Z,16.30
2023-01-24T21:38:07.697Z,18.07
2023-01-24T21:40:53.995Z,16.25
2023-01-24T21:43:20.359Z,18.38
2023-01-24T21:45:52.539Z,16.50
2023-01-24T21:48:38.857Z,16.55
2023-01-24T21:51:05.409Z,17.83
2023-01-24T21:53:50.203Z,16.88
2023-01-24T21:56:34.967Z,18.00
2023-01-24T21:59:01.308Z,15.32
2023-01-24T22:01:27.678Z,18.48
2023-01-24T22:03:54.294Z,17.90
2023-01-24T22:06:20.634Z,15.27
2023-01-24T22:08:47.156Z,17.52
2023-01-24T22:11:13.491Z,14.65
2023-01-24T22:13:39.879Z,16.90
2023-01-24T22:16:12.385Z,17.07
2023-01-24T22:18:39.066Z,17.27
2023-01-24T22:21:16.632Z,15.90
2023-01-24T22:23:55.997Z,16.45
2023-01-24T22:26:32.748Z,17.17
2023-01-24T22:28:59.395Z,14.20
2023-01-24T22:31:26.133Z,18.40
2023-01-24T22:33:52.932Z,16.25
2023-01-24T22:36:19.297Z,16.50
2023-01-24T22:38:45.688Z,19.40
2023-01-24T22:41:12.044Z,17.80
2023-01-24T22:43:38.407Z,17.85
2023-01-24T22:46:05.088Z,19.38
2023-01-24T22:48:31.460Z,18.17
2023-01-24T22:50:57.860Z,16.40
2023-01-24T22:53:24.218Z,17.40
2023-01-24T22:55:51.766Z,16.38
2023-01-24T22:58:18.161Z,18.70
2023-01-24T23:00:44.603Z,19.02
2023-01-24T23:03:11.036Z,16.75
2023-01-24T23:05:37.479Z,18.83
2023-01-24T23:08:04.002Z,16.33
2023-01-24T23:10:30.383Z,17.67
2023-01-24T23:13:15.416Z,16.75
2023-01-24T23:16:00.213Z,16.65
2023-01-24T23:18:47.148Z,15.80
2023-01-24T23:21:30.154Z,17.73
2023-01-24T23:23:57.321Z,17.15
2023-01-24T23:26:23.880Z,19.10
2023-01-24T23:29:16.796Z,17.17
2023-01-24T23:31:43.247Z,15.57
2023-01-24T23:34:31.632Z,21.10
2023-01-24T23:36:57.981Z,16.98
2023-01-24T23:39:24.350Z,17.10
2023-01-24T23:41:50.719Z,17.55
2023-01-24T23:44:17.099Z,16.70
2023-01-24T23:46:43.423Z,18.63
2023-01-24T23:49:09.785Z,17.15
2023-01-24T23:51:36.117Z,17.13
2023-01-24T23:54:02.481Z,19.45
2023-01-24T23:56:28.829Z,16.10
2023-01-24T23:58:55.558Z,17.13
